createdAt,value
2018-07-04T00:00:15.057Z,0.00
2018-07-04T00:01:15.026Z,0.00
2018-07-04T00:02:15.003Z,0.00
2018-07-04T00:03:14.975Z,0.00
2018-07-04T00:04:14.954Z,0.00
2018-07-04T00:05:14.924Z,0.00
2018-07-04T00:06:14.899Z,0.00
2018-07-04T00:07:14.875Z,0.00
2018-07-04T00:08:14.849Z,0.00
2018-07-04T00:09:14.822Z,0.00
2018-07-04T00:10:14.799Z,0.00
2018-07-04T00:11:14.776Z,0.00
2018-07-04T00:12:14.754Z,0.00
2018-07-04T00:13:14.725Z,0.00
2018-07-04T00:14:14.701Z,0.00
2018-07-04T00:15:14.673Z,0.00
2018-07-04T00:16:14.649Z,0.00
2018-07-04T00:17:14.629Z,0.00
2018-07-04T00:18:14.598Z,0.00
2018-07-04T00:19:14.576Z,0.00
2018-07-04T00:20:14.553Z,0.00
2018-07-04T00:21:14.557Z,0.00
2018-07-04T00:22:14.501Z,0.00
2018-07-04T00:23:14.475Z,0.00
2018-07-04T00:24:14.453Z,0.00
2018-07-04T00:25:14.423Z,0.00
2018-07-04T00:26:14.401Z,0.00
2018-07-04T00:27:14.374Z,0.00
2018-07-04T00:28:14.347Z,0.00
2018-07-04T00:29:14.321Z,0.00
2018-07-04T00:30:14.301Z,0.00
2018-07-04T00:31:14.274Z,0.00
2018-07-04T00:32:14.247Z,0.00
2018-07-04T00:33:14.222Z,0.00
2018-07-04T00:34:14.206Z,0.00
2018-07-04T00:35:14.171Z,0.00
2018-07-04T00:36:14.146Z,0.00
2018-07-04T00:37:14.121Z,0.00
2018-07-04T00:38:14.095Z,0.00
2018-07-04T00:39:14.069Z,0.00
2018-07-04T00:40:14.044Z,0.00
2018-07-04T00:41:14.019Z,0.00
2018-07-04T00:42:13.995Z,0.00
2018-07-04T00:43:13.969Z,0.00
2018-07-04T00:44:13.946Z,0.00
2018-07-04T00:45:13.921Z,0.00
2018-07-04T00:46:13.894Z,0.00
2018-07-04T00:47:13.888Z,0.00
2018-07-04T00:48:13.843Z,0.00
2018-07-04T00:49:13.823Z,0.00
2018-07-04T00:50:13.796Z,0.00
2018-07-04T00:51:13.768Z,0.00
2018-07-04T00:52:13.744Z,0.00
2018-07-04T00:53:13.719Z,0.00
2018-07-04T00:54:13.691Z,0.00
2018-07-04T00:55:13.668Z,0.00
2018-07-04T00:56:13.649Z,0.00
2018-07-04T00:57:13.618Z,0.00
2018-07-04T00:58:13.592Z,0.00
2018-07-04T00:59:13.564Z,0.00
2018-07-04T01:00:13.542Z,0.00
2018-07-04T01:01:13.537Z,0.00
2018-07-04T01:02:13.690Z,0.00
2018-07-04T01:03:13.465Z,0.00
2018-07-04T01:04:13.439Z,0.00
2018-07-04T01:05:13.414Z,0.00
2018-07-04T01:06:13.592Z,0.00
2018-07-04T01:07:13.564Z,0.00
2018-07-04T01:08:13.337Z,0.00
2018-07-04T01:09:13.311Z,0.00
2018-07-04T01:10:13.285Z,0.00
2018-07-04T01:11:13.265Z,0.00
2018-07-04T01:12:13.235Z,0.00
2018-07-04T01:13:13.209Z,0.00
2018-07-04T01:14:13.185Z,0.00
2018-07-04T01:15:13.161Z,0.00
2018-07-04T01:16:13.141Z,0.00
2018-07-04T01:17:13.110Z,0.00
2018-07-04T01:18:13.085Z,0.00
2018-07-04T01:19:13.057Z,0.00
2018-07-04T01:20:13.034Z,0.00
2018-07-04T01:21:13.008Z,0.00
2018-07-04T01:22:12.980Z,0.00
2018-07-04T01:23:12.958Z,0.00
2018-07-04T01:24:12.934Z,0.00
2018-07-04T01:25:12.906Z,0.00
2018-07-04T01:26:12.881Z,0.00
2018-07-04T01:27:12.854Z,0.00
2018-07-04T01:28:12.829Z,0.00
2018-07-04T01:29:12.802Z,0.00
2018-07-04T01:30:12.777Z,0.00
2018-07-04T01:31:12.754Z,0.00
2018-07-04T01:32:12.728Z,0.00
2018-07-04T01:33:12.701Z,0.00
2018-07-04T01:34:12.679Z,0.00
2018-07-04T01:35:12.650Z,0.00
2018-07-04T01:36:12.625Z,0.00
2018-07-04T01:37:12.601Z,0.00
2018-07-04T01:38:12.574Z,0.00
2018-07-04T01:39:12.550Z,0.00
2018-07-04T01:40:12.525Z,0.00
2018-07-04T01:41:12.500Z,0.00
2018-07-04T01:42:12.476Z,0.00
2018-07-04T01:43:12.449Z,0.00
2018-07-04T01:44:12.424Z,0.00
2018-07-04T01:45:12.400Z,0.00
2018-07-04T01:46:12.372Z,0.00
2018-07-04T01:47:12.345Z,0.00
2018-07-04T01:48:12.321Z,0.00
2018-07-04T01:49:12.294Z,0.00
2018-07-04T01:50:12.269Z,0.00
2018-07-04T01:51:12.244Z,0.00
2018-07-04T01:52:12.223Z,0.00
2018-07-04T01:53:12.194Z,0.00
2018-07-04T01:54:12.169Z,0.00
2018-07-04T01:55:12.154Z,0.00
2018-07-04T01:56:12.116Z,0.00
2018-07-04T01:57:12.094Z,0.00
2018-07-04T01:58:12.067Z,0.00
2018-07-04T01:59:12.040Z,0.00
2018-07-04T02:00:12.017Z,0.00
2018-07-04T02:01:11.988Z,0.00
2018-07-04T02:02:11.963Z,0.00
2018-07-04T02:03:11.940Z,0.00
2018-07-04T02:04:11.920Z,0.00
2018-07-04T02:05:11.901Z,0.00
2018-07-04T02:06:11.863Z,0.00
2018-07-04T02:07:11.836Z,0.00
2018-07-04T02:08:11.814Z,0.00
2018-07-04T02:09:11.790Z,0.00
2018-07-04T02:10:11.759Z,0.00
2018-07-04T02:11:11.938Z,0.00
2018-07-04T02:12:11.711Z,0.00
2018-07-04T02:13:11.683Z,0.00
2018-07-04T02:14:11.663Z,0.00
2018-07-04T02:15:11.634Z,0.00
2018-07-04T02:16:11.611Z,0.00
2018-07-04T02:17:11.582Z,0.00
2018-07-04T02:18:11.568Z,0.00
2018-07-04T02:19:11.533Z,0.00
2018-07-04T02:20:11.503Z,0.00
2018-07-04T02:21:11.477Z,0.00
2018-07-04T02:22:11.456Z,0.00
2018-07-04T02:23:11.428Z,0.00
2018-07-04T02:24:11.404Z,0.00
2018-07-04T02:25:11.380Z,0.00
2018-07-04T02:26:11.352Z,0.00
2018-07-04T02:27:11.339Z,0.00
2018-07-04T02:28:11.300Z,0.00
2018-07-04T02:29:11.273Z,0.00
2018-07-04T02:30:11.249Z,0.00
2018-07-04T02:31:11.223Z,0.00
2018-07-04T02:32:11.197Z,0.00
2018-07-04T02:33:11.173Z,0.00
2018-07-04T02:34:11.148Z,0.00
2018-07-04T02:35:11.125Z,5.63
2018-07-04T02:36:11.102Z,5.63
2018-07-04T02:37:11.071Z,5.63
2018-07-04T02:38:11.050Z,5.63
2018-07-04T02:39:11.224Z,5.63
2018-07-04T02:40:10.991Z,5.63
2018-07-04T02:41:11.169Z,5.63
2018-07-04T02:42:10.941Z,5.63
2018-07-04T02:43:10.917Z,11.25
2018-07-04T02:44:10.893Z,11.25
2018-07-04T02:45:10.872Z,11.25
2018-07-04T02:46:10.841Z,11.25
2018-07-04T02:47:10.815Z,11.25
2018-07-04T02:48:10.789Z,16.88
2018-07-04T02:49:10.768Z,16.88
2018-07-04T02:50:10.742Z,16.88
2018-07-04T02:51:10.718Z,16.88
2018-07-04T02:52:10.686Z,16.88
2018-07-04T02:53:10.811Z,22.50
2018-07-04T02:54:10.667Z,22.50
2018-07-04T02:55:10.611Z,22.50
2018-07-04T02:56:10.585Z,28.13
2018-07-04T02:57:10.559Z,28.13
2018-07-04T02:58:10.535Z,28.13
2018-07-04T02:59:10.506Z,33.75
2018-07-04T03:00:10.481Z,33.75
2018-07-04T03:01:10.454Z,39.38
2018-07-04T03:02:10.440Z,39.38
2018-07-04T03:03:10.406Z,39.38
2018-07-04T03:04:10.379Z,45.00
2018-07-04T03:05:10.353Z,45.00
2018-07-04T03:06:10.327Z,50.63
2018-07-04T03:07:10.304Z,56.25
2018-07-04T03:08:10.278Z,56.25
2018-07-04T03:09:10.252Z,61.88
2018-07-04T03:10:10.226Z,61.88
2018-07-04T03:11:10.201Z,67.50
2018-07-04T03:12:10.174Z,67.50
2018-07-04T03:13:10.148Z,73.13
2018-07-04T03:14:10.123Z,73.13
2018-07-04T03:15:10.098Z,73.13
2018-07-04T03:16:10.074Z,78.75
2018-07-04T03:17:10.052Z,78.75
2018-07-04T03:18:10.021Z,84.38
2018-07-04T03:19:10.002Z,90.00
2018-07-04T03:20:09.972Z,90.00
2018-07-04T03:21:09.944Z,95.63
2018-07-04T03:22:09.921Z,101.25
2018-07-04T03:23:09.895Z,106.88
2018-07-04T03:24:09.867Z,106.88
2018-07-04T03:25:09.841Z,112.50
2018-07-04T03:26:09.816Z,118.13
2018-07-04T03:27:09.793Z,118.13
2018-07-04T03:28:09.766Z,123.75
2018-07-04T03:29:09.740Z,129.38
2018-07-04T03:30:09.716Z,135.00
2018-07-04T03:31:09.695Z,135.00
2018-07-04T03:32:09.664Z,135.00
2018-07-04T03:33:09.639Z,140.63
2018-07-04T03:34:09.611Z,146.25
2018-07-04T03:35:09.588Z,151.88
2018-07-04T03:36:09.564Z,151.88
2018-07-04T03:37:09.537Z,157.50
2018-07-04T03:38:09.511Z,163.13
2018-07-04T03:39:09.485Z,168.75
2018-07-04T03:40:09.461Z,174.38
2018-07-04T03:41:09.434Z,180.00
2018-07-04T03:42:09.408Z,208.13
2018-07-04T03:43:09.384Z,247.50
2018-07-04T03:44:09.372Z,270.00
2018-07-04T03:45:09.334Z,275.63
2018-07-04T03:46:09.313Z,281.25
2018-07-04T03:47:09.284Z,286.88
2018-07-04T03:48:09.256Z,298.13
2018-07-04T03:49:09.230Z,309.38
2018-07-04T03:50:09.210Z,315.00
2018-07-04T03:51:09.180Z,320.63
2018-07-04T03:52:09.160Z,331.88
2018-07-04T03:53:09.130Z,348.75
2018-07-04T03:54:09.107Z,343.13
2018-07-04T03:55:09.082Z,354.38
2018-07-04T03:56:09.057Z,360.00
2018-07-04T03:57:09.031Z,371.25
2018-07-04T03:58:09.067Z,376.88
2018-07-04T03:59:08.981Z,388.13
2018-07-04T04:00:08.956Z,393.75
2018-07-04T04:01:08.931Z,405.00
2018-07-04T04:02:08.910Z,410.63
2018-07-04T04:03:08.885Z,427.50
2018-07-04T04:04:08.862Z,427.50
2018-07-04T04:05:08.835Z,438.75
2018-07-04T04:06:08.812Z,444.38
2018-07-04T04:07:08.789Z,455.63
2018-07-04T04:08:08.764Z,461.25
2018-07-04T04:09:08.738Z,472.50
2018-07-04T04:10:08.756Z,489.38
2018-07-04T04:11:08.890Z,495.00
2018-07-04T04:12:08.663Z,506.25
2018-07-04T04:13:08.639Z,506.25
2018-07-04T04:14:08.616Z,517.50
2018-07-04T04:15:08.597Z,534.38
2018-07-04T04:16:08.773Z,545.63
2018-07-04T04:17:08.547Z,551.25
2018-07-04T04:18:08.521Z,568.13
2018-07-04T04:19:08.498Z,579.38
2018-07-04T04:20:08.474Z,590.63
2018-07-04T04:21:08.450Z,596.25
2018-07-04T04:22:08.432Z,607.50
2018-07-04T04:23:08.403Z,618.75
2018-07-04T04:24:08.383Z,630.00
2018-07-04T04:25:08.356Z,635.63
2018-07-04T04:26:08.333Z,646.88
2018-07-04T04:27:08.336Z,658.13
2018-07-04T04:28:08.293Z,658.13
2018-07-04T04:29:08.265Z,675.00
2018-07-04T04:30:08.447Z,691.88
2018-07-04T04:31:08.421Z,697.50
2018-07-04T04:32:08.196Z,714.38
2018-07-04T04:33:08.178Z,725.63
2018-07-04T04:34:08.351Z,742.50
2018-07-04T04:35:08.138Z,742.50
2018-07-04T04:36:08.111Z,753.75
2018-07-04T04:37:08.089Z,765.00
2018-07-04T04:38:08.083Z,759.38
2018-07-04T04:39:08.038Z,770.63
2018-07-04T04:40:08.218Z,787.50
2018-07-04T04:41:08.198Z,798.75
2018-07-04T04:42:08.173Z,810.00
2018-07-04T04:43:08.152Z,821.25
2018-07-04T04:44:09.344Z,838.13
2018-07-04T04:45:07.905Z,849.38
2018-07-04T04:46:07.898Z,849.38
2018-07-04T04:47:07.861Z,877.50
2018-07-04T04:48:07.837Z,866.25
2018-07-04T04:49:07.817Z,877.50
2018-07-04T04:50:07.794Z,883.13
2018-07-04T04:51:07.975Z,905.63
2018-07-04T04:52:07.961Z,900.00
2018-07-04T04:53:07.730Z,905.63
2018-07-04T04:54:07.708Z,933.75
2018-07-04T04:55:07.902Z,945.00
2018-07-04T04:56:07.668Z,945.00
2018-07-04T04:57:07.644Z,973.13
2018-07-04T04:58:07.621Z,973.13
2018-07-04T04:59:07.599Z,967.50
2018-07-04T05:00:07.579Z,984.38
2018-07-04T05:01:07.553Z,1012.50
2018-07-04T05:02:07.539Z,1018.13
2018-07-04T05:03:07.715Z,1035.00
2018-07-04T05:04:07.490Z,1057.50
2018-07-04T05:05:07.468Z,1080.00
2018-07-04T05:06:07.649Z,1091.25
2018-07-04T05:07:07.424Z,1136.25
2018-07-04T05:08:07.411Z,1153.13
2018-07-04T05:09:07.582Z,1175.63
2018-07-04T05:10:07.561Z,1181.25
2018-07-04T05:11:07.338Z,1164.38
2018-07-04T05:12:07.319Z,1181.25
2018-07-04T05:13:07.295Z,1181.25
2018-07-04T05:14:07.274Z,1186.88
2018-07-04T05:15:07.254Z,1198.13
2018-07-04T05:16:07.234Z,1243.13
2018-07-04T05:17:07.215Z,1243.13
2018-07-04T05:18:07.193Z,1237.50
2018-07-04T05:19:07.171Z,1243.13
2018-07-04T05:20:07.351Z,1243.13
2018-07-04T05:21:07.126Z,1243.13
2018-07-04T05:22:07.106Z,1288.13
2018-07-04T05:23:07.088Z,1310.63
2018-07-04T05:24:07.067Z,1310.63
2018-07-04T05:25:07.045Z,1327.50
2018-07-04T05:26:07.226Z,1327.50
2018-07-04T05:27:07.005Z,1333.13
2018-07-04T05:28:06.984Z,1366.88
2018-07-04T05:29:06.961Z,1406.25
2018-07-04T05:30:06.943Z,1400.63
2018-07-04T05:31:07.732Z,1406.25
2018-07-04T05:32:06.900Z,1389.38
2018-07-04T05:33:07.081Z,1406.25
2018-07-04T05:34:06.860Z,1445.63
2018-07-04T05:35:06.856Z,1490.63
2018-07-04T05:36:06.820Z,1552.50
2018-07-04T05:37:06.801Z,1552.50
2018-07-04T05:38:06.780Z,1524.38
2018-07-04T05:39:06.757Z,1569.38
2018-07-04T05:40:06.741Z,1608.75
2018-07-04T05:41:06.723Z,1642.50
2018-07-04T05:42:06.698Z,1603.13
2018-07-04T05:43:06.882Z,1586.25
2018-07-04T05:44:06.660Z,1603.13
2018-07-04T05:45:06.639Z,1698.75
2018-07-04T05:46:06.620Z,1704.38
2018-07-04T05:47:06.598Z,1749.38
2018-07-04T05:48:06.578Z,1856.25
2018-07-04T05:49:06.557Z,1845.00
2018-07-04T05:50:06.540Z,1850.63
2018-07-04T05:51:06.520Z,1856.25
2018-07-04T05:52:06.501Z,1873.13
2018-07-04T05:53:06.684Z,1861.88
2018-07-04T05:54:06.464Z,1912.50
2018-07-04T05:55:06.443Z,1895.63
2018-07-04T05:56:06.432Z,1861.88
2018-07-04T05:57:06.402Z,1873.13
2018-07-04T05:58:06.383Z,1895.63
2018-07-04T05:59:06.364Z,1839.38
2018-07-04T06:00:06.548Z,1856.25
2018-07-04T06:01:06.528Z,1906.88
2018-07-04T06:02:06.509Z,1935.00
2018-07-04T06:03:06.290Z,1957.50
2018-07-04T06:04:06.473Z,1957.50
2018-07-04T06:05:06.253Z,2019.38
2018-07-04T06:06:06.233Z,2058.75
2018-07-04T06:07:06.212Z,1991.25
2018-07-04T06:08:06.196Z,1996.88
2018-07-04T06:09:06.215Z,2019.38
2018-07-04T06:10:06.369Z,2070.00
2018-07-04T06:11:06.341Z,2075.63
2018-07-04T06:12:06.322Z,2081.25
2018-07-04T06:13:48.462Z,2008.13
2018-07-04T06:14:48.440Z,1940.63
2018-07-04T06:15:48.422Z,1861.88
2018-07-04T06:17:48.382Z,1771.88
2018-07-04T06:18:48.364Z,1732.50
2018-07-04T06:19:48.146Z,1732.50
2018-07-04T06:20:48.331Z,1687.50
2018-07-04T06:21:48.113Z,1636.88
2018-07-04T06:22:48.303Z,1558.13
2018-07-04T06:23:48.071Z,1479.38
2018-07-04T06:24:48.132Z,1423.13
2018-07-04T06:25:48.234Z,1361.25
2018-07-04T06:26:49.228Z,1327.50
2018-07-04T06:27:47.997Z,1299.38
2018-07-04T06:28:47.978Z,1260.00
2018-07-04T06:29:47.964Z,1226.25
2018-07-04T06:30:47.943Z,1220.63
2018-07-04T06:31:47.925Z,1231.88
2018-07-04T06:32:47.910Z,1231.88
2018-07-04T06:33:47.892Z,1265.63
2018-07-04T06:34:48.077Z,1766.25
2018-07-04T06:35:47.869Z,2441.25
2018-07-04T06:36:47.836Z,2902.50
2018-07-04T06:37:47.821Z,2756.25
2018-07-04T06:38:47.801Z,2418.75
2018-07-04T06:39:47.987Z,2340.00
2018-07-04T06:40:47.771Z,2368.13
2018-07-04T06:41:47.952Z,2475.00
2018-07-04T06:42:47.731Z,2508.75
2018-07-04T06:43:47.917Z,2491.88
2018-07-04T06:44:47.900Z,2581.88
2018-07-04T06:45:47.680Z,2559.38
2018-07-04T06:46:47.662Z,2610.00
2018-07-04T06:47:47.644Z,2643.75
2018-07-04T06:48:47.639Z,2632.50
2018-07-04T06:49:47.610Z,2621.25
2018-07-04T06:50:47.590Z,2632.50
2018-07-04T06:51:47.578Z,2553.75
2018-07-04T06:52:47.557Z,2548.13
2018-07-04T06:53:47.546Z,2677.50
2018-07-04T06:54:47.528Z,2733.75
2018-07-04T06:55:47.707Z,2666.25
2018-07-04T06:56:47.489Z,2711.25
2018-07-04T06:57:47.471Z,2638.13
2018-07-04T06:58:47.452Z,2565.00
2018-07-04T06:59:47.436Z,2598.75
2018-07-04T07:00:47.420Z,2700.00
2018-07-04T07:08:07.026Z,2548.13
2018-07-04T07:09:06.802Z,2621.25
2018-07-04T07:10:06.781Z,2626.88
2018-07-04T07:11:06.770Z,2643.75
2018-07-04T07:12:06.748Z,2700.00
2018-07-04T07:13:06.746Z,2688.75
2018-07-04T07:14:06.713Z,2728.13
2018-07-04T07:15:09.584Z,2728.13
2018-07-04T07:16:06.685Z,2700.00
2018-07-04T07:17:06.867Z,2683.13
2018-07-04T07:18:06.650Z,2846.25
2018-07-04T07:19:06.839Z,2761.88
2018-07-04T07:20:06.620Z,2688.75
2018-07-04T07:21:06.656Z,2739.38
2018-07-04T07:22:06.583Z,2812.50
2018-07-04T07:23:06.570Z,2733.75
2018-07-04T07:24:06.555Z,2761.88
2018-07-04T07:25:06.536Z,2722.50
2018-07-04T07:26:06.528Z,2643.75
2018-07-04T07:27:06.507Z,2790.00
2018-07-04T07:28:06.698Z,2767.50
2018-07-04T07:29:06.682Z,2756.25
2018-07-04T07:30:06.460Z,2913.75
2018-07-04T07:31:06.445Z,2857.50
2018-07-04T07:32:06.484Z,2857.50
2018-07-04T07:33:06.416Z,2925.00
2018-07-04T07:34:06.712Z,2812.50
2018-07-04T07:35:06.586Z,2863.13
2018-07-04T07:36:06.386Z,2986.88
2018-07-04T07:37:06.358Z,2919.38
2018-07-04T07:38:06.354Z,2829.38
2018-07-04T07:39:06.528Z,2913.75
2018-07-04T07:40:06.317Z,2936.25
2018-07-04T07:41:06.299Z,2958.75
2018-07-04T07:42:06.484Z,2925.00
2018-07-04T07:43:06.466Z,2953.13
2018-07-04T07:44:06.452Z,3127.50
2018-07-04T07:45:06.439Z,3031.88
2018-07-04T07:46:06.426Z,2998.13
2018-07-04T07:47:06.409Z,3037.50
2018-07-04T07:48:06.394Z,3138.75
2018-07-04T07:49:06.176Z,3127.50
2018-07-04T07:50:06.159Z,3060.00
2018-07-04T07:51:06.346Z,2981.25
2018-07-04T07:52:06.334Z,2992.50
2018-07-04T07:53:06.140Z,2958.75
2018-07-04T07:54:06.146Z,2992.50
2018-07-04T07:55:06.295Z,2998.13
2018-07-04T07:56:06.073Z,2868.75
2018-07-04T07:57:06.056Z,2874.38
2018-07-04T07:58:06.040Z,2958.75
2018-07-04T07:59:06.228Z,2930.63
2018-07-04T08:00:06.213Z,3020.63
2018-07-04T08:01:05.999Z,3093.75
2018-07-04T08:02:05.984Z,2947.50
2018-07-04T08:03:05.964Z,3020.63
2018-07-04T08:04:05.948Z,3031.88
2018-07-04T08:05:05.932Z,3071.25
2018-07-04T08:06:05.920Z,3054.38
2018-07-04T08:07:05.907Z,3133.13
2018-07-04T08:08:05.892Z,3127.50
2018-07-04T08:09:05.878Z,2936.25
2018-07-04T08:10:05.861Z,2913.75
2018-07-04T08:11:06.045Z,3082.50
2018-07-04T08:12:05.830Z,3031.88
2018-07-04T08:13:06.015Z,3099.38
2018-07-04T08:14:05.800Z,2970.00
2018-07-04T08:15:05.986Z,3003.75
2018-07-04T08:16:05.770Z,3223.13
2018-07-04T08:17:05.756Z,3065.63
2018-07-04T08:18:05.740Z,3054.38
2018-07-04T08:19:05.728Z,3076.88
2018-07-04T08:20:05.707Z,3256.88
2018-07-04T08:21:05.692Z,3206.25
2018-07-04T08:22:05.681Z,3178.13
2018-07-04T08:23:05.872Z,3285.00
2018-07-04T08:24:05.658Z,3133.13
2018-07-04T08:25:05.635Z,3200.63
2018-07-04T08:26:05.824Z,3391.88
2018-07-04T08:27:05.809Z,3172.50
2018-07-04T08:28:05.795Z,3195.00
2018-07-04T08:29:05.578Z,3245.63
2018-07-04T08:30:05.763Z,3279.38
2018-07-04T08:31:05.752Z,3324.38
2018-07-04T08:32:05.533Z,3172.50
2018-07-04T08:33:05.516Z,3330.00
2018-07-04T08:34:05.708Z,3481.88
2018-07-04T08:35:05.693Z,3240.00
2018-07-04T08:36:05.477Z,3150.00
2018-07-04T08:37:05.468Z,3330.00
2018-07-04T08:38:05.446Z,3352.50
2018-07-04T08:39:05.642Z,3223.13
2018-07-04T08:40:05.622Z,3313.13
2018-07-04T08:41:05.404Z,3431.25
2018-07-04T08:42:05.591Z,3262.50
2018-07-04T08:43:05.383Z,3285.00
2018-07-04T08:44:05.365Z,3363.75
2018-07-04T08:45:05.348Z,3335.63
2018-07-04T08:46:05.334Z,3285.00
2018-07-04T08:47:05.320Z,3346.88
2018-07-04T08:48:05.310Z,3296.25
2018-07-04T08:49:05.293Z,3386.25
2018-07-04T08:50:05.276Z,3414.38
2018-07-04T08:51:05.275Z,3442.50
2018-07-04T08:52:05.450Z,3380.63
2018-07-04T08:53:05.234Z,3442.50
2018-07-04T08:54:05.424Z,3622.50
2018-07-04T08:55:05.214Z,3290.63
2018-07-04T08:56:05.404Z,3386.25
2018-07-04T08:57:05.179Z,3571.88
2018-07-04T08:58:05.175Z,3346.88
2018-07-04T08:59:47.516Z,3380.63
2018-07-04T09:00:47.300Z,3510.00
2018-07-04T09:01:48.095Z,3420.00
2018-07-04T09:02:47.270Z,3403.13
2018-07-04T09:03:47.257Z,3380.63
2018-07-04T09:04:47.242Z,3408.75
2018-07-04T09:05:47.439Z,3571.88
2018-07-04T09:06:47.217Z,3526.88
2018-07-04T09:07:47.204Z,3515.63
2018-07-04T09:08:47.190Z,3521.25
2018-07-04T09:09:47.378Z,3465.00
2018-07-04T09:10:47.368Z,3560.63
2018-07-04T09:11:47.155Z,3521.25
2018-07-04T09:12:47.135Z,3493.13
2018-07-04T09:13:47.122Z,3577.50
2018-07-04T09:14:47.109Z,3588.75
2018-07-04T09:15:47.103Z,3526.88
2018-07-04T09:16:50.919Z,3763.13
2018-07-04T09:17:47.070Z,3577.50
2018-07-04T09:18:47.261Z,3616.88
2018-07-04T09:19:47.044Z,3678.75
2018-07-04T09:20:47.033Z,3633.75
2018-07-04T09:21:47.020Z,3791.25
2018-07-04T09:22:47.005Z,3678.75
2018-07-04T09:58:13.035Z,3898.13
2018-07-04T09:59:12.813Z,4027.50
2018-07-04T10:00:12.793Z,4128.75
2018-07-04T11:36:04.550Z,4455.00
2018-07-04T11:37:04.537Z,4438.13
2018-07-04T11:38:04.324Z,4370.63
2018-07-04T11:39:04.309Z,4421.25
2018-07-04T11:40:04.295Z,4606.88
2018-07-04T11:41:04.291Z,4511.25
2018-07-04T11:42:04.273Z,4556.25
2018-07-04T11:43:04.466Z,4668.75
2018-07-04T11:44:04.455Z,4483.13
2018-07-04T11:45:04.452Z,4443.75
2018-07-04T11:46:04.433Z,4443.75
2018-07-04T11:47:04.421Z,4500.00
2018-07-04T11:48:04.412Z,4488.75
2018-07-04T11:49:04.197Z,4505.63
2018-07-04T11:50:04.389Z,4612.50
2018-07-04T11:51:04.175Z,4494.38
2018-07-04T11:52:04.368Z,4168.13
2018-07-04T11:53:04.397Z,4381.88
2018-07-04T11:54:04.349Z,4483.13
2018-07-04T11:55:04.137Z,4494.38
2018-07-04T11:56:04.328Z,4657.50
2018-07-04T11:57:04.150Z,4567.50
2018-07-04T11:58:04.107Z,4365.00
2018-07-04T11:59:04.296Z,4005.00
2018-07-04T12:00:04.085Z,3864.38
2018-07-04T12:01:04.075Z,4061.25
2018-07-04T12:02:04.266Z,4314.38
2018-07-04T12:03:04.062Z,4359.38
2018-07-04T12:04:06.902Z,4533.75
2018-07-04T12:05:04.037Z,4404.38
2018-07-04T12:06:04.234Z,4426.88
2018-07-04T12:07:04.220Z,4381.88
2018-07-04T12:08:04.010Z,4455.00
2018-07-04T12:09:04.010Z,4410.00
2018-07-04T12:10:04.193Z,4438.13
2018-07-04T12:11:04.181Z,4460.63
2018-07-04T12:12:04.171Z,4528.13
2018-07-04T12:13:03.961Z,4522.50
2018-07-04T12:14:03.955Z,4303.13
2018-07-04T12:15:03.941Z,4207.50
2018-07-04T12:16:04.134Z,4213.13
2018-07-04T12:17:03.923Z,4117.50
2018-07-04T12:18:03.920Z,4235.63
2018-07-04T12:19:03.901Z,4269.38
2018-07-04T12:20:03.892Z,4185.00
2018-07-04T12:21:03.962Z,4314.38
2018-07-04T12:22:04.084Z,4381.88
2018-07-04T12:23:03.862Z,4618.13
2018-07-04T12:24:03.856Z,4449.38
2018-07-04T12:25:03.843Z,4314.38
2018-07-04T12:26:03.832Z,4269.38
2018-07-04T12:27:03.827Z,4404.38
2018-07-04T12:28:03.819Z,4556.25
2018-07-04T12:29:03.808Z,4460.63
2018-07-04T12:30:03.798Z,4168.13
2018-07-04T12:31:03.994Z,4320.00
2018-07-04T12:32:04.096Z,4505.63
2018-07-04T12:33:03.969Z,4404.38
2018-07-04T12:34:03.756Z,4410.00
2018-07-04T12:35:03.750Z,4443.75
2018-07-04T12:36:03.740Z,4545.00
2018-07-04T12:37:03.731Z,4404.38
2018-07-04T12:38:03.724Z,4331.25
2018-07-04T12:39:03.713Z,4320.00
2018-07-04T12:40:03.701Z,4471.88
2018-07-04T12:41:03.686Z,4545.00
2018-07-04T12:42:03.679Z,4387.50
2018-07-04T12:43:03.681Z,4353.75
2018-07-04T12:44:03.661Z,4370.63
2018-07-04T12:45:03.652Z,4365.00
2018-07-04T12:46:03.640Z,4269.38
2018-07-04T12:47:03.653Z,4404.38
2018-07-04T12:48:03.617Z,4370.63
2018-07-04T12:49:03.607Z,4539.38
2018-07-04T12:50:03.597Z,4398.75
2018-07-04T12:51:03.610Z,4230.00
2018-07-04T12:52:03.580Z,4421.25
2018-07-04T12:53:03.574Z,4500.00
2018-07-04T12:54:03.654Z,4635.00
2018-07-04T12:55:03.547Z,4415.63
2018-07-04T12:56:03.541Z,3481.88
2018-07-04T12:57:03.526Z,2548.13
2018-07-04T12:58:03.516Z,3661.88
2018-07-04T12:59:03.503Z,4353.75
2018-07-04T13:00:03.494Z,4252.50
2018-07-04T13:01:03.482Z,4128.75
2018-07-04T13:02:03.473Z,4258.13
2018-07-04T13:03:03.529Z,4376.25
2018-07-04T13:04:03.657Z,4140.00
2018-07-04T13:05:03.650Z,4061.25
2018-07-04T13:06:03.634Z,4241.25
2018-07-04T13:07:03.627Z,4218.75
2018-07-04T13:08:03.408Z,4207.50
2018-07-04T13:09:03.397Z,4190.63
2018-07-04T13:10:03.589Z,4263.75
2018-07-04T13:11:03.381Z,4297.50
2018-07-04T13:12:03.366Z,4280.63
2018-07-04T13:13:03.353Z,4353.75
2018-07-04T13:14:03.381Z,4291.88
2018-07-04T13:15:03.336Z,4393.13
2018-07-04T13:16:03.328Z,4179.38
2018-07-04T13:17:03.314Z,4033.13
2018-07-04T13:18:03.304Z,4303.13
2018-07-04T13:19:03.292Z,4466.25
2018-07-04T13:20:03.483Z,4162.50
2018-07-04T13:21:03.270Z,4145.63
2018-07-04T13:22:03.260Z,3920.63
2018-07-04T13:23:05.876Z,3948.75
2018-07-04T13:24:03.247Z,4235.63
2018-07-04T13:25:03.232Z,4218.75
2018-07-04T13:26:03.221Z,4218.75
2018-07-04T13:27:03.211Z,3943.13
2018-07-04T13:28:03.200Z,3757.50
2018-07-04T13:29:03.189Z,3853.13
2018-07-04T13:30:03.185Z,3886.88
2018-07-04T13:31:03.170Z,3988.13
2018-07-04T13:32:03.210Z,4089.38
2018-07-04T13:33:03.146Z,4010.63
2018-07-04T13:34:03.136Z,3993.75
2018-07-04T13:35:03.128Z,4010.63
2018-07-04T13:36:03.122Z,3965.63
2018-07-04T13:37:03.106Z,3780.00
2018-07-04T13:38:03.097Z,4179.38
2018-07-04T13:39:03.089Z,4365.00
2018-07-04T13:40:03.076Z,4156.88
2018-07-04T13:41:03.065Z,3808.13
2018-07-04T13:42:03.054Z,3571.88
2018-07-04T13:43:03.070Z,3825.00
2018-07-04T13:44:03.047Z,4005.00
2018-07-04T13:45:03.032Z,3915.00
2018-07-04T13:46:03.012Z,3982.50
2018-07-04T13:47:03.006Z,4230.00
2018-07-04T13:48:02.996Z,3881.25
2018-07-04T13:49:02.983Z,3718.13
2018-07-04T13:50:02.977Z,3718.13
2018-07-04T13:51:02.966Z,3746.25
2018-07-04T13:52:02.953Z,3763.13
2018-07-04T13:53:02.943Z,3746.25
2018-07-04T13:54:02.932Z,3825.00
2018-07-04T13:55:02.924Z,3836.25
2018-07-04T13:56:02.924Z,3926.25
2018-07-04T13:57:03.321Z,3825.00
2018-07-04T13:58:02.900Z,3825.00
2018-07-04T13:59:02.883Z,3763.13
2018-07-04T14:00:02.873Z,3701.25
2018-07-04T14:01:02.861Z,3690.00
2018-07-04T14:02:02.855Z,3819.38
2018-07-04T14:03:02.840Z,3645.00
2018-07-04T14:04:02.837Z,3510.00
2018-07-04T14:05:02.821Z,3611.25
2018-07-04T14:06:02.807Z,3611.25
2018-07-04T14:07:02.800Z,3425.63
2018-07-04T14:08:45.152Z,3273.75
2018-07-04T14:09:48.980Z,3279.38
2018-07-04T14:10:45.130Z,3217.50
2018-07-04T14:11:44.916Z,3195.00
2018-07-04T14:12:44.905Z,3324.38
2018-07-04T14:13:44.898Z,3352.50
2018-07-04T14:14:44.883Z,3245.63
2018-07-04T14:15:44.876Z,3268.13
2018-07-04T14:16:44.865Z,3166.88
2018-07-04T14:17:44.853Z,3324.38
2018-07-04T14:18:44.843Z,3532.50
2018-07-04T14:19:44.830Z,3628.13
2018-07-04T14:20:44.819Z,3571.88
2018-07-04T14:21:44.828Z,3521.25
2018-07-04T14:22:44.796Z,3335.63
2018-07-04T14:23:44.787Z,3256.88
2018-07-04T14:24:44.775Z,3273.75
2018-07-04T14:25:44.763Z,3380.63
2018-07-04T14:26:44.753Z,3391.88
2018-07-04T14:27:44.746Z,3431.25
2018-07-04T14:28:44.732Z,3285.00
2018-07-04T14:29:44.721Z,3088.13
2018-07-04T14:30:44.711Z,2835.00
2018-07-04T14:31:44.697Z,2683.13
2018-07-04T14:32:44.801Z,2722.50
2018-07-04T14:33:44.676Z,2756.25
2018-07-04T14:34:44.665Z,2643.75
2018-07-04T14:35:44.656Z,2334.38
2018-07-04T14:36:44.644Z,2148.75
2018-07-04T14:37:44.632Z,2199.38
2018-07-04T14:38:44.627Z,2233.13
2018-07-04T14:39:44.618Z,2643.75
2018-07-04T14:40:44.812Z,3926.25
2018-07-04T14:41:44.595Z,4376.25
2018-07-04T14:42:44.578Z,3695.63
2018-07-04T14:43:44.565Z,3566.25